createdAt,value
2017-06-18T00:00:22.445Z,20.78
2017-06-18T00:00:49.112Z,20.7
2017-06-18T00:01:16.059Z,20.78
2017-06-18T00:01:42.326Z,20.74
2017-06-18T00:02:08.543Z,20.72
2017-06-18T00:02:34.765Z,20.8
2017-06-18T00:03:01.000Z,20.8
2017-06-18T00:03:27.235Z,20.69
2017-06-18T00:03:53.530Z,20.7
2017-06-18T00:04:19.720Z,20.66
2017-06-18T00:04:45.964Z,20.67
2017-06-18T00:05:12.527Z,20.7
2017-06-18T00:05:38.793Z,20.72
2017-06-18T00:06:05.346Z,20.7
2017-06-18T00:06:31.699Z,20.69
2017-06-18T00:06:58.209Z,20.67
2017-06-18T00:07:24.410Z,20.66
2017-06-18T00:07:50.653Z,20.59
2017-06-18T00:08:16.866Z,20.59
2017-06-18T00:08:43.120Z,20.65
2017-06-18T00:09:09.317Z,20.66
2017-06-18T00:09:35.531Z,20.72
2017-06-18T00:10:01.793Z,20.63
2017-06-18T00:10:28.011Z,20.6
2017-06-18T00:10:54.215Z,20.56
2017-06-18T00:11:20.569Z,20.66
2017-06-18T00:11:46.920Z,20.6
2017-06-18T00:12:13.142Z,20.66
2017-06-18T00:12:39.705Z,20.6
2017-06-18T00:13:05.918Z,20.58
2017-06-18T00:13:32.132Z,20.7
2017-06-18T00:13:58.328Z,20.65
2017-06-18T00:14:24.537Z,20.63
2017-06-18T00:14:50.752Z,20.62
2017-06-18T00:15:16.971Z,20.6
2017-06-18T00:15:43.187Z,20.59
2017-06-18T00:16:09.497Z,20.65
2017-06-18T00:16:35.784Z,20.62
2017-06-18T00:17:02.023Z,20.58
2017-06-18T00:17:28.237Z,20.52
2017-06-18T00:17:54.479Z,20.5
2017-06-18T00:18:20.660Z,20.43
2017-06-18T00:18:46.875Z,20.44
2017-06-18T00:19:13.127Z,20.47
2017-06-18T00:19:39.326Z,20.5
2017-06-18T00:20:05.752Z,20.44
2017-06-18T00:20:32.024Z,20.48
2017-06-18T00:20:58.214Z,20.43
2017-06-18T00:21:24.450Z,20.4
2017-06-18T00:21:50.642Z,20.5
2017-06-18T00:22:16.852Z,20.47
2017-06-18T00:22:43.053Z,20.36
2017-06-18T00:23:09.366Z,20.43
2017-06-18T00:23:35.842Z,20.43
2017-06-18T00:24:02.096Z,20.4
2017-06-18T00:24:28.322Z,20.43
2017-06-18T00:24:54.526Z,20.39
2017-06-18T00:25:20.735Z,20.39
2017-06-18T00:25:47.018Z,20.47
2017-06-18T00:26:13.397Z,20.47
2017-06-18T00:26:39.598Z,20.5
2017-06-18T00:27:05.851Z,20.4
2017-06-18T00:27:32.104Z,20.43
2017-06-18T00:27:58.287Z,20.47
2017-06-18T00:28:24.581Z,20.44
2017-06-18T00:28:50.752Z,20.43
2017-06-18T00:29:16.954Z,20.37
2017-06-18T00:29:43.261Z,20.29
2017-06-18T00:30:09.472Z,20.44
2017-06-18T00:30:35.723Z,20.31
2017-06-18T00:31:02.000Z,20.31
2017-06-18T00:31:28.263Z,20.4
2017-06-18T00:31:54.496Z,20.41
2017-06-18T00:32:20.683Z,20.51
2017-06-18T00:32:46.986Z,20.41
2017-06-18T00:33:13.184Z,20.4
2017-06-18T00:33:39.395Z,20.32
2017-06-18T00:34:05.636Z,20.28
2017-06-18T00:34:31.819Z,20.4
2017-06-18T00:34:58.072Z,20.37
2017-06-18T00:35:24.319Z,20.34
2017-06-18T00:35:50.550Z,20.32
2017-06-18T00:36:16.768Z,20.34
2017-06-18T00:36:43.014Z,20.41
2017-06-18T00:37:09.216Z,20.36
2017-06-18T00:37:35.463Z,20.28
2017-06-18T00:38:01.648Z,20.37
2017-06-18T00:38:27.849Z,20.32
2017-06-18T00:38:54.020Z,20.34
2017-06-18T00:39:20.203Z,20.32
2017-06-18T00:39:46.398Z,20.37
2017-06-18T00:40:12.638Z,20.28
2017-06-18T00:40:38.873Z,20.37
2017-06-18T00:41:05.031Z,20.36
2017-06-18T00:41:31.210Z,20.32
2017-06-18T00:41:57.512Z,20.36
2017-06-18T00:42:23.619Z,20.32
2017-06-18T00:42:49.757Z,20.29
2017-06-18T00:43:15.902Z,20.34
2017-06-18T00:43:42.036Z,20.32
2017-06-18T00:44:08.152Z,20.31
2017-06-18T00:44:34.285Z,20.29
2017-06-18T00:45:00.400Z,20.32
2017-06-18T00:45:26.489Z,20.36
2017-06-18T00:45:52.605Z,20.29
2017-06-18T00:46:18.724Z,20.31
2017-06-18T00:46:44.830Z,20.32
2017-06-18T00:47:10.956Z,20.36
2017-06-18T00:47:37.074Z,20.31
2017-06-18T00:48:03.177Z,20.29
2017-06-18T00:48:29.273Z,20.28
2017-06-18T00:48:55.382Z,20.28
2017-06-18T00:49:21.486Z,20.29
2017-06-18T00:49:47.593Z,20.29
2017-06-18T00:50:13.701Z,20.26
2017-06-18T00:50:39.801Z,20.26
2017-06-18T00:51:05.907Z,20.28
2017-06-18T00:51:32.002Z,20.25
2017-06-18T00:51:58.097Z,20.26
2017-06-18T00:52:24.207Z,20.24
2017-06-18T00:52:50.305Z,20.22
2017-06-18T00:53:16.396Z,20.24
2017-06-18T00:53:42.501Z,20.19
2017-06-18T00:54:08.632Z,20.18
2017-06-18T00:54:34.704Z,20.14
2017-06-18T00:55:00.824Z,20.1
2017-06-18T00:55:26.940Z,20.19
2017-06-18T00:55:53.052Z,20.13
2017-06-18T00:56:19.148Z,20.14
2017-06-18T00:56:45.241Z,20.14
2017-06-18T00:57:11.371Z,20.13
2017-06-18T00:57:37.469Z,20.16
2017-06-18T00:58:03.559Z,20.16
2017-06-18T00:58:29.689Z,20.19
2017-06-18T00:58:55.824Z,20.07
2017-06-18T00:59:21.935Z,20.11
2017-06-18T00:59:48.036Z,20.04
2017-06-18T01:00:14.143Z,20.07
2017-06-18T01:00:40.265Z,20.13
2017-06-18T01:01:06.388Z,20.06
2017-06-18T01:01:32.493Z,20.03
2017-06-18T01:01:58.612Z,20.1
2017-06-18T01:02:24.728Z,20.09
2017-06-18T01:02:50.837Z,20.07
2017-06-18T01:03:16.936Z,20.09
2017-06-18T01:03:43.029Z,20.1
2017-06-18T01:04:09.137Z,20.11
2017-06-18T01:04:35.236Z,20.13
2017-06-18T01:05:01.327Z,20.09
2017-06-18T01:05:27.430Z,20.07
2017-06-18T01:05:53.521Z,20.1
2017-06-18T01:06:19.658Z,20.09
2017-06-18T01:06:45.757Z,20.09
2017-06-18T01:07:11.848Z,20.06
2017-06-18T01:07:37.953Z,20.04
2017-06-18T01:08:04.085Z,20.04
2017-06-18T01:08:30.201Z,20.07
2017-06-18T01:08:56.327Z,20.09
2017-06-18T01:09:22.433Z,20.07
2017-06-18T01:09:48.520Z,20.11
2017-06-18T01:10:14.621Z,20.1
2017-06-18T01:10:40.731Z,20.11
2017-06-18T01:11:06.844Z,20.09
2017-06-18T01:11:32.975Z,20.07
2017-06-18T01:11:59.089Z,20.06
2017-06-18T01:12:25.192Z,20.03
2017-06-18T01:12:51.300Z,20.09
2017-06-18T01:13:17.387Z,20.09
2017-06-18T01:13:43.488Z,20.13
2017-06-18T01:14:09.623Z,20.11
2017-06-18T01:14:35.714Z,20.11
2017-06-18T01:15:01.811Z,20.1
2017-06-18T01:15:27.944Z,20.11
2017-06-18T01:15:54.065Z,20.11
2017-06-18T01:16:20.156Z,20.19
2017-06-18T01:16:46.260Z,20.04
2017-06-18T01:17:12.413Z,20.06
2017-06-18T01:17:38.545Z,20.02
2017-06-18T01:18:04.634Z,19.92
2017-06-18T01:18:30.732Z,20.04
2017-06-18T01:18:56.839Z,20
2017-06-18T01:19:22.933Z,19.94
2017-06-18T01:19:49.025Z,20.02
2017-06-18T01:20:15.134Z,19.99
2017-06-18T01:20:41.258Z,19.99
2017-06-18T01:21:07.374Z,19.91
2017-06-18T01:21:33.481Z,19.99
2017-06-18T01:21:59.608Z,19.92
2017-06-18T01:22:25.725Z,19.92
2017-06-18T01:22:51.855Z,19.92
2017-06-18T01:23:17.986Z,19.92
2017-06-18T01:23:44.073Z,19.92
2017-06-18T01:24:10.201Z,19.99
2017-06-18T01:24:36.308Z,19.96
2017-06-18T01:25:02.399Z,19.99
2017-06-18T01:25:28.497Z,19.94
2017-06-18T01:25:54.604Z,19.96
2017-06-18T01:26:20.750Z,19.95
2017-06-18T01:26:46.865Z,19.91
2017-06-18T01:27:12.975Z,19.96
2017-06-18T01:27:39.099Z,20
2017-06-18T01:28:05.258Z,19.99
2017-06-18T01:28:31.348Z,20
2017-06-18T01:28:57.467Z,19.94
2017-06-18T01:29:23.575Z,19.92
2017-06-18T01:29:49.696Z,19.92
2017-06-18T01:30:15.811Z,19.95
2017-06-18T01:30:41.921Z,19.94
2017-06-18T01:31:08.024Z,19.92
2017-06-18T01:31:34.110Z,19.92
2017-06-18T01:32:00.217Z,19.94
2017-06-18T01:32:26.317Z,19.96
2017-06-18T01:32:52.456Z,19.94
2017-06-18T01:33:18.560Z,19.95
2017-06-18T01:33:44.651Z,19.95
2017-06-18T01:34:10.758Z,19.94
2017-06-18T01:34:36.881Z,19.91
2017-06-18T01:35:02.972Z,19.91
2017-06-18T01:35:29.102Z,19.91
2017-06-18T01:35:55.204Z,19.99
2017-06-18T01:36:21.296Z,19.89
2017-06-18T01:36:47.400Z,19.89
2017-06-18T01:37:13.532Z,19.88
2017-06-18T01:37:39.621Z,19.91
2017-06-18T01:38:05.720Z,19.89
2017-06-18T01:38:31.826Z,19.84
2017-06-18T01:38:57.917Z,19.91
2017-06-18T01:39:24.021Z,19.84
2017-06-18T01:39:50.111Z,19.85
2017-06-18T01:40:16.214Z,19.82
2017-06-18T01:40:42.320Z,19.81
2017-06-18T01:41:08.431Z,19.73
2017-06-18T01:41:34.533Z,19.81
2017-06-18T01:42:00.639Z,19.79
2017-06-18T01:42:26.731Z,19.7
2017-06-18T01:42:52.828Z,19.76
2017-06-18T01:43:18.935Z,19.84
2017-06-18T01:43:45.029Z,19.81
2017-06-18T01:44:11.143Z,19.77
2017-06-18T01:44:37.252Z,19.7
2017-06-18T01:45:03.351Z,19.76
2017-06-18T01:45:29.441Z,19.79
2017-06-18T01:45:55.576Z,19.69
2017-06-18T01:46:21.673Z,19.67
2017-06-18T01:46:47.789Z,19.77
2017-06-18T01:47:13.894Z,19.73
2017-06-18T01:47:40.001Z,19.77
2017-06-18T01:48:06.087Z,19.76
2017-06-18T01:48:32.213Z,19.79
2017-06-18T01:48:58.327Z,19.71
2017-06-18T01:49:24.439Z,19.76
2017-06-18T01:49:50.561Z,19.76
2017-06-18T01:50:16.659Z,19.79
2017-06-18T01:50:42.763Z,19.7
2017-06-18T01:51:08.868Z,19.67
2017-06-18T01:51:34.958Z,19.81
2017-06-18T01:52:01.056Z,19.82
2017-06-18T01:52:27.190Z,19.7
2017-06-18T01:52:53.282Z,19.74
2017-06-18T01:53:19.379Z,19.77
2017-06-18T01:53:46.018Z,19.67
2017-06-18T01:54:13.870Z,19.69
2017-06-18T01:54:40.658Z,19.7
2017-06-18T01:55:08.252Z,19.66
2017-06-18T01:55:35.815Z,19.79
2017-06-18T01:56:03.621Z,19.7
2017-06-18T01:56:30.834Z,19.69
2017-06-18T01:56:58.451Z,19.79
2017-06-18T01:57:25.893Z,19.74
2017-06-18T01:57:54.064Z,19.74
2017-06-18T01:58:20.090Z,19.69
2017-06-18T01:58:46.201Z,19.66
2017-06-18T01:59:12.324Z,19.66
2017-06-18T01:59:38.414Z,19.7
2017-06-18T02:00:04.520Z,19.73
2017-06-18T02:00:30.621Z,19.66
2017-06-18T02:00:56.735Z,19.71
2017-06-18T02:01:22.840Z,19.66
2017-06-18T02:01:48.929Z,19.74
2017-06-18T02:02:15.041Z,19.73
2017-06-18T02:02:41.137Z,19.67
2017-06-18T02:03:07.252Z,19.7
2017-06-18T02:03:33.413Z,19.62
2017-06-18T02:03:59.569Z,19.67
2017-06-18T02:04:25.658Z,19.69
2017-06-18T02:04:51.787Z,19.66
2017-06-18T02:05:17.920Z,19.67
2017-06-18T02:05:44.033Z,19.59
2017-06-18T02:06:10.134Z,19.59
2017-06-18T02:06:36.252Z,19.66
2017-06-18T02:07:02.360Z,19.64
2017-06-18T02:07:28.461Z,19.66
2017-06-18T02:07:54.552Z,19.63
2017-06-18T02:08:20.655Z,19.63
2017-06-18T02:08:46.791Z,19.67
2017-06-18T02:09:12.878Z,19.66
2017-06-18T02:09:38.979Z,19.63
2017-06-18T02:10:05.084Z,19.66
2017-06-18T02:10:31.176Z,19.69
2017-06-18T02:10:57.298Z,19.69
2017-06-18T02:11:23.405Z,19.74
2017-06-18T02:11:49.498Z,19.66
2017-06-18T02:12:15.588Z,19.69
2017-06-18T02:12:41.693Z,19.67
2017-06-18T02:13:07.796Z,19.64
2017-06-18T02:13:33.927Z,19.63
2017-06-18T02:14:00.018Z,19.55
2017-06-18T02:14:26.116Z,19.66
2017-06-18T02:14:52.224Z,19.62
2017-06-18T02:15:18.316Z,19.62
2017-06-18T02:15:44.432Z,19.64
2017-06-18T02:16:10.540Z,19.66
2017-06-18T02:16:36.640Z,19.55
2017-06-18T02:17:02.732Z,19.63
2017-06-18T02:17:28.862Z,19.59
2017-06-18T02:17:54.962Z,19.64
2017-06-18T02:18:21.061Z,19.59
2017-06-18T02:18:47.154Z,19.58
2017-06-18T02:19:13.245Z,19.48
2017-06-18T02:19:39.355Z,19.49
2017-06-18T02:20:05.452Z,19.39
2017-06-18T02:20:31.565Z,19.41
2017-06-18T02:20:57.700Z,19.34
2017-06-18T02:21:23.828Z,19.45
2017-06-18T02:21:49.969Z,19.39
2017-06-18T02:22:16.072Z,19.4
2017-06-18T02:22:42.204Z,19.44
2017-06-18T02:23:08.318Z,19.47
2017-06-18T02:23:34.468Z,19.47
2017-06-18T02:24:00.586Z,19.49
2017-06-18T02:24:26.718Z,19.41
2017-06-18T02:24:52.818Z,19.45
2017-06-18T02:25:18.909Z,19.48
2017-06-18T02:25:45.013Z,19.51
2017-06-18T02:26:11.119Z,19.51
2017-06-18T02:26:37.206Z,19.49
2017-06-18T02:27:03.305Z,19.52
2017-06-18T02:27:29.412Z,19.49
2017-06-18T02:27:55.502Z,19.51
2017-06-18T02:28:21.625Z,19.47
2017-06-18T02:28:47.759Z,19.51
2017-06-18T02:29:13.854Z,19.48
2017-06-18T02:29:39.944Z,19.48
2017-06-18T02:30:06.053Z,19.45
2017-06-18T02:30:32.151Z,19.48
2017-06-18T02:30:58.267Z,19.47
2017-06-18T02:31:24.375Z,19.56
2017-06-18T02:31:50.503Z,19.51
2017-06-18T02:32:16.593Z,19.54
2017-06-18T02:32:42.696Z,19.56
2017-06-18T02:33:08.803Z,19.48
2017-06-18T02:33:34.891Z,19.48
2017-06-18T02:34:00.991Z,19.47
2017-06-18T02:34:27.096Z,19.47
2017-06-18T02:34:53.187Z,19.49
2017-06-18T02:35:19.290Z,19.55
2017-06-18T02:35:45.379Z,19.56
2017-06-18T02:36:11.482Z,19.47
2017-06-18T02:36:37.642Z,19.47
2017-06-18T02:37:03.728Z,19.47
2017-06-18T02:37:29.828Z,19.48
2017-06-18T02:37:55.933Z,19.51
2017-06-18T02:38:22.052Z,19.49
2017-06-18T02:38:48.172Z,19.48
2017-06-18T02:39:14.306Z,19.54
2017-06-18T02:39:40.403Z,19.45
2017-06-18T02:40:06.517Z,19.47
2017-06-18T02:40:32.621Z,19.56
2017-06-18T02:40:58.749Z,19.49
2017-06-18T02:41:24.853Z,19.52
2017-06-18T02:41:51.002Z,19.49
2017-06-18T02:42:17.098Z,19.55
2017-06-18T02:42:43.233Z,19.47
2017-06-18T02:43:09.328Z,19.48
2017-06-18T02:43:35.442Z,19.47
2017-06-18T02:44:01.605Z,19.48
2017-06-18T02:44:27.730Z,19.51
2017-06-18T02:44:53.819Z,19.45
2017-06-18T02:45:19.928Z,19.49
2017-06-18T02:45:46.029Z,19.49
2017-06-18T02:46:12.152Z,19.51
2017-06-18T02:46:38.296Z,19.39
2017-06-18T02:47:04.388Z,19.52
2017-06-18T02:47:30.493Z,19.54
2017-06-18T02:47:56.616Z,19.49
2017-06-18T02:48:22.707Z,19.48
2017-06-18T02:48:48.812Z,19.48
2017-06-18T02:49:14.913Z,19.48
2017-06-18T02:49:41.029Z,19.44
2017-06-18T02:50:07.160Z,19.51
2017-06-18T02:50:33.294Z,19.44
2017-06-18T02:50:59.408Z,19.48
2017-06-18T02:51:25.508Z,19.41
2017-06-18T02:51:51.603Z,19.48
2017-06-18T02:52:17.709Z,19.39
2017-06-18T02:52:43.808Z,19.45
2017-06-18T02:53:09.899Z,19.34
2017-06-18T02:53:36.019Z,19.47
2017-06-18T02:54:02.138Z,19.39
2017-06-18T02:54:28.225Z,19.47
2017-06-18T02:54:54.326Z,19.39
2017-06-18T02:55:20.460Z,19.37
2017-06-18T02:55:46.575Z,19.37
2017-06-18T02:56:12.672Z,19.34
2017-06-18T02:56:38.780Z,19.45
2017-06-18T02:57:04.872Z,19.37
2017-06-18T02:57:30.978Z,19.41
2017-06-18T02:57:57.065Z,19.4
2017-06-18T02:58:23.165Z,19.44
2017-06-18T02:58:49.271Z,19.39
2017-06-18T02:59:15.362Z,19.39
2017-06-18T02:59:41.483Z,19.34
2017-06-18T03:00:07.619Z,19.41
2017-06-18T03:00:33.712Z,19.44
2017-06-18T03:00:59.828Z,19.45
2017-06-18T03:01:25.963Z,19.37
2017-06-18T03:01:52.059Z,19.39
2017-06-18T03:02:18.149Z,19.4
2017-06-18T03:02:44.257Z,19.34
2017-06-18T03:03:10.351Z,19.39
2017-06-18T03:03:36.484Z,19.39
2017-06-18T03:04:02.578Z,19.34
2017-06-18T03:04:28.671Z,19.37
2017-06-18T03:04:54.778Z,19.34
2017-06-18T03:05:20.900Z,19.33
2017-06-18T03:05:46.992Z,19.37
2017-06-18T03:06:13.098Z,19.41
2017-06-18T03:06:39.227Z,19.45
2017-06-18T03:07:05.342Z,19.44
2017-06-18T03:07:31.445Z,19.4
2017-06-18T03:07:57.554Z,19.39
2017-06-18T03:08:23.648Z,19.39
2017-06-18T03:08:49.751Z,19.44
2017-06-18T03:09:15.866Z,19.4
2017-06-18T03:09:42.001Z,19.4
2017-06-18T03:10:08.101Z,19.37
2017-06-18T03:10:34.193Z,19.36
2017-06-18T03:11:00.297Z,19.44
2017-06-18T03:11:26.431Z,19.37
2017-06-18T03:11:52.519Z,19.39
2017-06-18T03:12:18.620Z,19.36
2017-06-18T03:12:44.755Z,19.45
2017-06-18T03:13:10.844Z,19.44
2017-06-18T03:13:36.942Z,19.4
2017-06-18T03:14:03.074Z,19.4
2017-06-18T03:14:29.194Z,19.37
2017-06-18T03:14:55.285Z,19.39
2017-06-18T03:15:21.446Z,19.34
2017-06-18T03:15:47.541Z,19.36
2017-06-18T03:16:13.633Z,19.34
2017-06-18T03:16:39.766Z,19.36
2017-06-18T03:17:05.869Z,19.36
2017-06-18T03:17:31.956Z,19.36
2017-06-18T03:17:58.061Z,19.33
2017-06-18T03:18:24.167Z,19.27
2017-06-18T03:18:50.254Z,19.31
2017-06-18T03:19:16.378Z,19.3
2017-06-18T03:19:42.471Z,19.27
2017-06-18T03:20:08.599Z,19.26
2017-06-18T03:20:34.706Z,19.27
2017-06-18T03:21:00.798Z,19.31
2017-06-18T03:21:26.903Z,19.26
2017-06-18T03:21:53.036Z,19.22
2017-06-18T03:22:19.150Z,19.22
2017-06-18T03:22:45.252Z,19.15
2017-06-18T03:23:11.411Z,19.12
2017-06-18T03:23:37.530Z,19.12
2017-06-18T03:24:03.623Z,19.26
2017-06-18T03:24:29.731Z,19.29
2017-06-18T03:24:55.853Z,19.31
2017-06-18T03:25:21.988Z,19.27
2017-06-18T03:25:48.100Z,19.29
2017-06-18T03:26:14.201Z,19.33
2017-06-18T03:26:40.307Z,19.3
2017-06-18T03:27:06.423Z,19.29
2017-06-18T03:27:32.575Z,19.3
2017-06-18T03:27:58.677Z,19.34
2017-06-18T03:28:24.799Z,19.31
2017-06-18T03:28:50.890Z,19.33
2017-06-18T03:29:17.025Z,19.29
2017-06-18T03:29:43.120Z,19.31
2017-06-18T03:30:09.237Z,19.4
2017-06-18T03:30:35.371Z,19.36
2017-06-18T03:31:01.491Z,19.37
2017-06-18T03:31:27.625Z,19.31
2017-06-18T03:31:53.718Z,19.34
2017-06-18T03:32:19.808Z,19.37
2017-06-18T03:32:45.918Z,19.27
2017-06-18T03:33:12.042Z,19.31
2017-06-18T03:33:38.133Z,19.33
2017-06-18T03:34:04.240Z,19.31
2017-06-18T03:34:30.340Z,19.3
2017-06-18T03:34:56.431Z,19.31
2017-06-18T03:35:22.535Z,19.31
2017-06-18T03:35:48.643Z,19.31
2017-06-18T03:36:14.762Z,19.34
2017-06-18T03:36:40.885Z,19.27
2017-06-18T03:37:06.975Z,19.27
2017-06-18T03:37:33.083Z,19.26
2017-06-18T03:37:59.184Z,19.29
2017-06-18T03:38:25.274Z,19.26
2017-06-18T03:38:51.380Z,19.24
2017-06-18T03:39:17.512Z,19.22
2017-06-18T03:39:43.600Z,19.26
2017-06-18T03:40:09.725Z,19.24
2017-06-18T03:40:35.834Z,19.14
2017-06-18T03:41:01.924Z,19.15
2017-06-18T03:41:28.020Z,19.26
2017-06-18T03:41:54.116Z,19.18
2017-06-18T03:42:20.218Z,19.18
2017-06-18T03:42:46.323Z,19.16
2017-06-18T03:43:12.408Z,19.14
2017-06-18T03:43:38.509Z,19.27
2017-06-18T03:44:04.646Z,19.12
2017-06-18T03:44:30.761Z,19.15
2017-06-18T03:44:56.857Z,19.12
2017-06-18T03:45:22.962Z,19.12
2017-06-18T03:45:49.080Z,19.14
2017-06-18T03:46:15.196Z,19.11
2017-06-18T03:46:41.333Z,19.07
2017-06-18T03:47:07.427Z,19.12
2017-06-18T03:47:33.530Z,19.14
2017-06-18T03:47:59.620Z,19.14
2017-06-18T03:48:25.739Z,19.02
2017-06-18T03:48:51.872Z,19.08
2017-06-18T03:49:17.966Z,19.09
2017-06-18T03:49:44.057Z,19.09
2017-06-18T03:50:10.164Z,19.07
2017-06-18T03:50:36.261Z,19.09
2017-06-18T03:51:02.352Z,19.12
2017-06-18T03:51:28.459Z,19.18
2017-06-18T03:51:54.557Z,19.09
2017-06-18T03:52:20.673Z,19.18
2017-06-18T03:52:46.774Z,19.07
2017-06-18T03:53:12.893Z,19.12
2017-06-18T03:53:39.001Z,19.08
2017-06-18T03:54:05.100Z,19.14
2017-06-18T03:54:31.191Z,19.07
2017-06-18T03:54:57.299Z,19.08
2017-06-18T03:55:23.396Z,19
2017-06-18T03:55:49.510Z,19.04
2017-06-18T03:56:15.614Z,19
2017-06-18T03:56:41.723Z,19
2017-06-18T03:57:07.812Z,18.99
2017-06-18T03:57:33.910Z,18.99
2017-06-18T03:58:00.116Z,19.04
2017-06-18T03:58:26.231Z,18.98
2017-06-18T03:58:52.328Z,19.09
2017-06-18T03:59:18.436Z,19.02
2017-06-18T03:59:44.557Z,18.96
2017-06-18T04:00:10.648Z,19.08
2017-06-18T04:00:36.757Z,19.07
2017-06-18T04:01:02.852Z,18.95
2017-06-18T04:01:28.968Z,19.09
2017-06-18T04:01:55.128Z,19.09
2017-06-18T04:02:21.229Z,19.07
2017-06-18T04:02:47.321Z,19.07
2017-06-18T04:03:13.425Z,19.02
2017-06-18T04:03:39.533Z,19.04
2017-06-18T04:04:05.626Z,19.07
2017-06-18T04:04:31.724Z,19.08
2017-06-18T04:04:57.815Z,19
2017-06-18T04:05:23.919Z,19.09
2017-06-18T04:05:50.020Z,19.09
2017-06-18T04:06:16.111Z,19.09
2017-06-18T04:06:42.214Z,19.04
2017-06-18T04:07:08.319Z,19.12
2017-06-18T04:07:34.434Z,19.24
2017-06-18T04:08:00.533Z,19.19
2017-06-18T04:08:26.668Z,19.09
2017-06-18T04:08:52.758Z,19.14
2017-06-18T04:09:18.853Z,19.16
2017-06-18T04:09:44.951Z,19.22
2017-06-18T04:10:11.054Z,19.19
2017-06-18T04:10:37.158Z,19.16
2017-06-18T04:11:03.246Z,19.11
2017-06-18T04:11:29.346Z,19.15
2017-06-18T04:11:55.501Z,19.29
2017-06-18T04:12:21.572Z,19.26
2017-06-18T04:12:47.666Z,19.29
2017-06-18T04:13:13.772Z,19.24
2017-06-18T04:13:39.867Z,19.26
2017-06-18T04:14:05.959Z,19.27
2017-06-18T04:14:32.068Z,19.26
2017-06-18T04:14:58.194Z,19.29
2017-06-18T04:15:24.299Z,19.26
2017-06-18T04:15:50.387Z,19.31
2017-06-18T04:16:16.483Z,19.31
2017-06-18T04:16:42.589Z,19.34
2017-06-18T04:17:08.691Z,19.34
2017-06-18T04:17:34.776Z,19.31
2017-06-18T04:18:00.883Z,19.29
2017-06-18T04:18:26.980Z,19.29
2017-06-18T04:18:53.097Z,19.36
2017-06-18T04:19:19.204Z,19.3
2017-06-18T04:19:45.305Z,19.36
2017-06-18T04:20:11.421Z,19.39
2017-06-18T04:20:37.525Z,19.41
2017-06-18T04:21:03.639Z,19.37
2017-06-18T04:21:29.750Z,19.36
2017-06-18T04:21:55.845Z,19.4
2017-06-18T04:22:21.935Z,19.48
2017-06-18T04:22:48.043Z,19.52
2017-06-18T04:23:14.200Z,19.45
2017-06-18T04:23:40.290Z,19.52
2017-06-18T04:24:06.393Z,19.54
2017-06-18T04:24:32.499Z,19.52
2017-06-18T04:24:58.587Z,19.49
2017-06-18T04:25:24.712Z,19.49
2017-06-18T04:25:50.848Z,19.48
2017-06-18T04:26:16.909Z,19.62
2017-06-18T04:26:43.015Z,19.59
2017-06-18T04:27:09.105Z,19.58
2017-06-18T04:27:35.209Z,19.58
2017-06-18T04:28:01.314Z,19.63
2017-06-18T04:28:27.425Z,19.59
2017-06-18T04:28:53.578Z,19.63
2017-06-18T04:29:19.686Z,19.59
2017-06-18T04:29:45.801Z,19.64
2017-06-18T04:30:11.924Z,19.64
2017-06-18T04:30:38.031Z,19.64
2017-06-18T04:31:04.125Z,19.64
2017-06-18T04:31:30.214Z,19.66
2017-06-18T04:31:56.317Z,19.7
2017-06-18T04:32:22.463Z,19.7
2017-06-18T04:32:48.570Z,19.73
2017-06-18T04:33:14.661Z,19.73
2017-06-18T04:33:40.757Z,19.69
2017-06-18T04:34:06.861Z,19.71
2017-06-18T04:34:32.956Z,19.7
2017-06-18T04:34:59.049Z,19.67
2017-06-18T04:35:25.184Z,19.66
2017-06-18T04:35:51.283Z,19.62
2017-06-18T04:36:17.374Z,19.69
2017-06-18T04:36:43.480Z,19.58
2017-06-18T04:37:09.580Z,19.59
2017-06-18T04:37:35.705Z,19.66
2017-06-18T04:38:01.801Z,19.66
2017-06-18T04:38:27.913Z,19.66
2017-06-18T04:38:54.025Z,19.67
2017-06-18T04:39:20.150Z,19.7
2017-06-18T04:39:46.243Z,19.71
2017-06-18T04:40:12.350Z,19.88
2017-06-18T04:40:38.479Z,19.94
2017-06-18T04:41:04.595Z,20.28
2017-06-18T04:41:30.700Z,20.39
2017-06-18T04:41:56.804Z,20.66
2017-06-18T04:42:22.939Z,20.97
2017-06-18T04:42:49.041Z,21.2
2017-06-18T04:43:15.175Z,21.5
2017-06-18T04:43:41.291Z,21.72
2017-06-18T04:44:07.389Z,21.92
2017-06-18T04:44:33.495Z,22.18
2017-06-18T04:44:59.590Z,22.39
2017-06-18T04:45:25.680Z,22.54
2017-06-18T04:45:51.794Z,22.69
2017-06-18T04:46:17.891Z,22.91
2017-06-18T04:46:43.982Z,23.08
2017-06-18T04:47:10.088Z,23.27
2017-06-18T04:47:36.190Z,23.43
2017-06-18T04:48:02.282Z,23.66
2017-06-18T04:48:28.388Z,23.74
2017-06-18T04:48:54.480Z,23.86
2017-06-18T04:49:20.619Z,23.87
2017-06-18T04:49:46.714Z,23.88
2017-06-18T04:50:12.806Z,24.01
2017-06-18T04:50:38.915Z,24.1
2017-06-18T04:51:05.018Z,24.35
2017-06-18T04:51:31.156Z,24.47
2017-06-18T04:51:57.314Z,24.76
2017-06-18T04:52:23.421Z,24.78
2017-06-18T04:52:49.558Z,24.95
2017-06-18T04:53:15.635Z,25.17
2017-06-18T04:53:41.742Z,25.41
2017-06-18T04:54:07.864Z,25.55
2017-06-18T04:54:33.965Z,25.6
2017-06-18T04:55:00.057Z,25.78
2017-06-18T04:55:26.161Z,25.95
2017-06-18T04:55:52.269Z,26.15
2017-06-18T04:56:18.359Z,26.23
2017-06-18T04:56:44.461Z,26.22
2017-06-18T04:57:10.570Z,26.38
2017-06-18T04:57:36.661Z,26.59
2017-06-18T04:58:02.783Z,26.62
2017-06-18T04:58:28.892Z,26.8
2017-06-18T04:58:54.988Z,26.74
2017-06-18T04:59:21.081Z,26.85
2017-06-18T04:59:47.187Z,26.97
2017-06-18T05:00:13.289Z,27.07
2017-06-18T05:00:39.397Z,26.99
2017-06-18T05:01:05.489Z,27.15
2017-06-18T05:01:31.588Z,27.21
2017-06-18T05:01:57.724Z,27.37
2017-06-18T05:02:23.822Z,27.49
2017-06-18T05:02:49.941Z,27.6
2017-06-18T05:03:16.054Z,27.68
2017-06-18T05:03:42.482Z,27.78
2017-06-18T05:04:08.576Z,27.96
2017-06-18T05:04:34.685Z,28.17
2017-06-18T05:05:00.843Z,28.2
2017-06-18T05:05:26.996Z,28.23
2017-06-18T05:05:53.092Z,28.3
2017-06-18T05:06:19.185Z,28.38
2017-06-18T05:06:45.301Z,28.38
2017-06-18T05:07:11.454Z,28.47
2017-06-18T05:07:37.547Z,28.56
2017-06-18T05:08:03.684Z,28.67
2017-06-18T05:08:29.789Z,28.67
2017-06-18T05:08:55.883Z,28.78
2017-06-18T05:09:22.012Z,28.88
2017-06-18T05:09:48.119Z,28.94
2017-06-18T05:10:14.207Z,29.05
2017-06-18T05:10:40.337Z,29.22
2017-06-18T05:11:06.459Z,29.2
2017-06-18T05:11:32.568Z,29.23
2017-06-18T05:11:58.701Z,29.26
2017-06-18T05:12:24.796Z,29.23
2017-06-18T05:12:50.899Z,29.42
2017-06-18T05:13:17.062Z,29.38
2017-06-18T05:13:43.150Z,29.49
2017-06-18T05:14:09.253Z,29.38
2017-06-18T05:14:35.361Z,29.35
2017-06-18T05:15:01.455Z,29.42
2017-06-18T05:15:27.556Z,29.42
2017-06-18T05:15:53.695Z,29.42
2017-06-18T05:16:19.790Z,29.39
2017-06-18T05:16:45.900Z,29.22
2017-06-18T05:17:12.013Z,29.31
2017-06-18T05:17:38.114Z,29.2
2017-06-18T05:18:04.251Z,29.02
2017-06-18T05:18:30.346Z,28.88
2017-06-18T05:18:56.494Z,28.86
2017-06-18T05:19:22.602Z,28.85
2017-06-18T05:19:48.701Z,28.7
2017-06-18T05:20:14.795Z,28.57
2017-06-18T05:20:40.906Z,28.37
2017-06-18T05:21:07.029Z,28.22
2017-06-18T05:21:33.123Z,28.07
2017-06-18T05:21:59.234Z,27.95
2017-06-18T05:22:25.330Z,27.86
2017-06-18T05:22:51.467Z,27.86
2017-06-18T05:23:17.617Z,27.74
2017-06-18T05:23:43.711Z,27.73
2017-06-18T05:24:09.824Z,27.59
2017-06-18T05:24:35.980Z,27.42
2017-06-18T05:25:02.099Z,27.26
2017-06-18T05:25:28.231Z,26.99
2017-06-18T05:25:54.332Z,26.7
2017-06-18T05:26:20.424Z,26.45
2017-06-18T05:26:46.556Z,26.33
2017-06-18T05:27:12.665Z,26.26
2017-06-18T05:27:38.756Z,26.18
2017-06-18T05:28:04.858Z,26.09
2017-06-18T05:28:30.995Z,26
2017-06-18T05:28:57.116Z,25.91
2017-06-18T05:29:23.215Z,25.75
2017-06-18T05:29:49.322Z,25.55
2017-06-18T05:30:15.418Z,25.22
2017-06-18T05:30:41.509Z,24.91
2017-06-18T05:31:07.624Z,24.89
2017-06-18T05:31:33.749Z,24.68
2017-06-18T05:31:59.862Z,24.81
2017-06-18T05:32:25.972Z,24.73
2017-06-18T05:32:52.103Z,24.73
2017-06-18T05:33:18.229Z,24.66
2017-06-18T05:33:44.326Z,24.6
2017-06-18T05:34:10.441Z,24.53
2017-06-18T05:34:36.553Z,24.33
2017-06-18T05:35:02.649Z,24.26
2017-06-18T05:35:28.741Z,24.06
2017-06-18T05:35:54.849Z,24.05
2017-06-18T05:36:20.979Z,24.01
2017-06-18T05:36:47.148Z,23.93
2017-06-18T05:37:13.252Z,23.98
2017-06-18T05:37:39.361Z,23.93
2017-06-18T05:38:05.449Z,23.77